Time;durP1;ratioP1;P1;durP2;ratioP2;P2;SDS_P1;SDS_P2;PMS_P1;PMS_P2;Temp;Humidity;BMP_temperature;BMP_pressure;BME280_temperature;BME280_humidity;BME280_pressure;Samples;Min_cycle;Max_cycle;Signal;HPM_P1;HPM_P2
2022/06/09 00:01:15;;;;;;;14.13;1.63;;;14.30;99.90;;;;;;5040568;28;20036;-86
2022/06/09 00:04:01;;;;;;;24.88;2.90;;;14.20;99.90;;;;;;5040548;28;20028;-86
2022/06/09 00:06:32;;;;;;;11.25;1.20;;;12.10;99.90;;;;;;5057666;28;20035;-86
2022/06/09 00:09:01;;;;;;;10.70;1.75;;;14.20;99.90;;;;;;5057740;28;20028;-86
2022/06/09 00:11:28;;;;;;;12.88;1.08;;;14.30;99.90;;;;;;5039976;28;20020;-86
2022/06/09 00:13:53;;;;;;;11.73;1.10;;;16.10;99.90;;;;;;5057996;28;20071;-86
2022/06/09 00:16:19;;;;;;;6.95;0.82;;;15.20;99.90;;;;;;5039563;28;20021;-86
2022/06/09 00:18:45;;;;;;;7.72;0.82;;;14.10;99.90;;;;;;5039059;28;20063;-86
2022/06/09 00:21:11;;;;;;;11.70;1.20;;;14.10;99.90;;;;;;5039835;28;20021;-85
2022/06/09 00:23:37;;;;;;;7.97;0.50;;;15.70;99.90;;;;;;5040126;28;20025;-85
2022/06/09 00:26:03;;;;;;;9.18;0.80;;;14.00;99.90;;;;;;5040049;28;20398;-85
2022/06/09 00:28:29;;;;;;;13.05;1.05;;;14.00;99.90;;;;;;5058794;28;20081;-86
2022/06/09 00:30:55;;;;;;;10.32;0.60;;;;;;;;;;5038637;28;20540;-86
2022/06/09 00:33:21;;;;;;;12.55;1.15;;;14.00;99.90;;;;;;5039484;28;20079;-85
2022/06/09 00:35:47;;;;;;;15.55;0.77;;;17.40;99.90;;;;;;5040386;28;20025;-85
2022/06/09 00:38:12;;;;;;;20.95;1.92;;;13.80;99.90;;;;;;5058303;28;20021;-85
2022/06/09 00:40:41;;;;;;;5.53;0.65;;;14.00;99.90;;;;;;5058460;28;20400;-85
2022/06/09 00:43:08;;;;;;;10.73;1.60;;;14.10;99.90;;;;;;5039838;28;20116;-85
2022/06/09 00:45:51;;;;;;;9.95;0.68;;;17.20;99.90;;;;;;5040847;28;20043;-86
2022/06/09 00:48:35;;;;;;;7.03;1.02;;;14.00;99.90;;;;;;5039505;28;20120;-85
2022/06/09 00:51:25;;;;;;;11.38;1.27;;;13.90;99.90;;;;;;5058618;28;20035;-85
2022/06/09 00:53:57;;;;;;;10.65;0.75;;;15.10;99.90;;;;;;5059932;28;20064;-84
2022/06/09 00:56:23;;;;;;;10.07;0.75;;;16.20;99.90;;;;;;5042084;28;20028;-84
2022/06/09 00:58:52;;;;;;;9.02;0.65;;;16.40;99.90;;;;;;5042316;28;20017;-84
2022/06/09 01:01:19;;;;;;;8.05;1.42;;;15.00;99.90;;;;;;5059240;28;20025;-85
2022/06/09 01:03:54;;;;;;;6.18;1.17;;;14.60;99.90;;;;;;5059390;28;20017;-85
2022/06/09 01:06:24;;;;;;;10.90;0.90;;;16.10;99.90;;;;;;5040038;28;20025;-85
2022/06/09 01:09:04;;;;;;;10.95;0.93;;;13.60;99.90;;;;;;5059072;28;20485;-84
2022/06/09 01:11:29;;;;;;;4.72;0.68;;;13.50;99.90;;;;;;5040625;28;20025;-85
2022/06/09 01:13:57;;;;;;;8.57;1.17;;;13.50;99.90;;;;;;5040941;28;20532;-85
2022/06/09 01:16:34;;;;;;;10.88;1.35;;;14.50;99.90;;;;;;5040280;28;20017;-85
2022/06/09 01:18:59;;;;;;;10.00;1.00;;;13.40;99.90;;;;;;5040469;28;20044;-85
2022/06/09 01:21:56;;;;;;;6.28;1.02;;;13.00;99.90;;;;;;5040109;28;20033;-85
2022/06/09 01:24:44;;;;;;;14.38;1.20;;;13.20;99.90;;;;;;5058359;28;20024;-84
2022/06/09 01:27:15;;;;;;;6.45;0.35;;;13.10;99.90;;;;;;5040237;28;20040;-85
2022/06/09 01:29:59;;;;;;;8.07;0.93;;;13.10;99.90;;;;;;5040578;28;20399;-84
2022/06/09 01:32:35;;;;;;;8.75;0.93;;;13.00;99.90;;;;;;5040219;28;20043;-85
2022/06/09 01:35:21;;;;;;;6.22;0.30;;;13.00;99.90;;;;;;5038913;28;20032;-85
2022/06/09 01:37:56;;;;;;;5.60;0.40;;;13.70;99.90;;;;;;5039696;28;20033;-85
2022/06/09 01:40:22;;;;;;;4.00;1.02;;;12.90;99.90;;;;;;5056976;28;20490;-85
2022/06/09 01:42:51;;;;;;;6.35;1.08;;;12.80;99.90;;;;;;5043432;28;20027;-85
2022/06/09 01:45:18;;;;;;;10.40;0.65;;;12.80;99.90;;;;;;5062376;28;20112;-85
2022/06/09 01:48:16;;;;;;;7.68;0.30;;;12.80;99.90;;;;;;5043090;28;20036;-85
2022/06/09 01:50:54;;;;;;;3.70;0.30;;;12.70;99.90;;;;;;5043107;28;20100;-85
2022/06/09 01:53:29;;;;;;;9.38;0.73;;;12.70;99.90;;;;;;5061415;28;20048;-85
2022/06/09 01:56:27;;;;;;;10.43;0.47;;;12.70;99.90;;;;;;5043202;28;20051;-85
2022/06/09 01:59:15;;;;;;;7.75;1.10;;;12.70;99.90;;;;;;5038414;28;20069;-85
2022/06/09 02:02:09;;;;;;;10.37;1.53;;;12.70;99.90;;;;;;5060318;28;20098;-85
2022/06/09 02:04:44;;;;;;;4.57;0.68;;;12.70;99.90;;;;;;5054857;28;20056;-85
2022/06/09 02:07:27;;;;;;;5.30;0.40;;;13.20;99.90;;;;;;5061037;28;20017;-85
2022/06/09 02:09:54;;;;;;;6.05;0.40;;;12.70;99.90;;;;;;5042941;28;20025;-83
2022/06/09 02:12:24;;;;;;;7.60;0.50;;;12.70;99.90;;;;;;5061358;28;20067;-83
2022/06/09 02:14:53;;;;;;;2.40;0.35;;;15.10;99.90;;;;;;5042991;28;20116;-84
2022/06/09 02:17:20;;;;;;;9.27;0.90;;;12.60;99.90;;;;;;5061450;28;20075;-84
2022/06/09 02:19:49;;;;;;;13.43;1.60;;;12.70;99.90;;;;;;5042888;28;20025;-84
2022/06/09 02:22:15;;;;;;;2.35;0.43;;;15.70;99.90;;;;;;5060604;28;20025;-83
2022/06/09 02:24:41;;;;;;;8.80;1.55;;;17.00;99.90;;;;;;5042856;28;20024;-83
2022/06/09 02:27:07;;;;;;;4.57;1.52;;;16.30;99.90;;;;;;5041998;28;20036;-84
2022/06/09 02:29:34;;;;;;;10.80;1.80;;;12.80;99.90;;;;;;5060469;28;20040;-83
2022/06/09 02:31:59;;;;;;;8.30;1.30;;;12.40;99.90;;;;;;5060602;28;20071;-84
2022/06/09 02:34:26;;;;;;;12.18;1.58;;;12.70;99.90;;;;;;5042198;28;20482;-83
2022/06/09 02:36:52;;;;;;;5.68;0.47;;;;;;;;;;5042589;28;20021;-84
2022/06/09 02:39:18;;;;;;;10.95;0.90;;;12.60;99.90;;;;;;5061359;28;20029;-84
2022/06/09 02:41:43;;;;;;;6.85;1.45;;;15.30;99.90;;;;;;5046676;28;20025;-84
2022/06/09 02:44:09;;;;;;;5.65;0.75;;;12.90;99.90;;;;;;5046688;28;20025;-84
2022/06/09 02:46:35;;;;;;;5.47;1.20;;;12.60;99.90;;;;;;5064524;28;20385;-84
2022/06/09 02:49:00;;;;;;;7.88;1.40;;;12.60;99.90;;;;;;5045332;28;20076;-84
2022/06/09 02:51:27;;;;;;;9.38;1.48;;;12.60;99.90;;;;;;5045152;28;20021;-84
2022/06/09 02:53:56;;;;;;;2.97;0.50;;;13.00;99.90;;;;;;5062191;28;20021;-84
2022/06/09 02:56:23;;;;;;;8.50;1.20;;;12.70;99.90;;;;;;5063291;28;20013;-84
2022/06/09 02:58:48;;;;;;;4.88;0.70;;;12.60;99.90;;;;;;5043624;28;20029;-85
2022/06/09 03:01:14;;;;;;;7.30;0.30;;;12.50;99.90;;;;;;5043691;28;20040;-85
2022/06/09 03:03:40;;;;;;;4.43;0.77;;;13.90;99.90;;;;;;5044030;28;20021;-84
2022/06/09 03:06:05;;;;;;;11.38;0.40;;;15.50;99.90;;;;;;5043942;28;20027;-85
2022/06/09 03:08:32;;;;;;;6.25;0.73;;;12.50;99.90;;;;;;5043057;28;20028;-85
2022/06/09 03:10:58;;;;;;;6.22;0.75;;;13.90;99.90;;;;;;5043323;28;20020;-85
2022/06/09 03:13:23;;;;;;;4.38;0.50;;;13.90;99.90;;;;;;5044260;28;20378;-84
2022/06/09 03:15:50;;;;;;;3.97;0.50;;;12.40;99.90;;;;;;5063502;28;20371;-84
2022/06/09 03:18:17;;;;;;;6.90;0.30;;;12.40;99.90;;;;;;5044143;28;20592;-85
2022/06/09 03:20:44;;;;;;;5.68;0.28;;;14.80;99.90;;;;;;5045917;28;20040;-84
2022/06/09 03:23:09;;;;;;;4.00;0.10;;;12.90;99.90;;;;;;5068673;28;20080;-85
2022/06/09 03:25:35;;;;;;;7.20;0.98;;;14.00;99.90;;;;;;5063917;28;20462;-84
2022/06/09 03:28:01;;;;;;;2.67;0.10;;;;;;;;;;5043306;28;20028;-84
2022/06/09 03:30:27;;;;;;;4.03;0.40;;;12.40;99.90;;;;;;5043803;28;20033;-84
2022/06/09 03:32:52;;;;;;;5.97;0.50;;;12.40;99.90;;;;;;5045600;28;20098;-84
2022/06/09 03:35:18;;;;;;;7.82;0.47;;;14.10;99.90;;;;;;5042847;28;20021;-84
2022/06/09 03:37:44;;;;;;;1.80;0.20;;;13.80;99.90;;;;;;5042336;28;20069;-84
2022/06/09 03:40:16;;;;;;;5.75;0.38;;;13.30;99.90;;;;;;5042599;28;20021;-84
2022/06/09 03:42:42;;;;;;;1.95;0.20;;;12.40;99.90;;;;;;5043307;28;20025;-84
2022/06/09 03:45:08;;;;;;;8.95;0.57;;;13.50;99.90;;;;;;5043011;28;20023;-85
2022/06/09 03:47:34;;;;;;;7.05;0.47;;;12.40;99.90;;;;;;5042318;28;20033;-84
2022/06/09 03:49:59;;;;;;;6.65;0.50;;;12.30;99.90;;;;;;5061270;28;20029;-84
2022/06/09 03:52:25;;;;;;;3.60;0.15;;;12.30;99.90;;;;;;5060450;28;20017;-84
2022/06/09 03:54:51;;;;;;;0.93;0.15;;;12.40;99.90;;;;;;5041756;28;20017;-84
2022/06/09 03:57:17;;;;;;;1.90;0.00;;;13.30;99.90;;;;;;5059747;28;20035;-84
2022/06/09 03:59:43;;;;;;;8.70;0.75;;;;;;;;;;5042723;28;20175;-84
2022/06/09 04:02:09;;;;;;;1.85;0.00;;;12.50;99.90;;;;;;5043618;28;20076;-84
2022/06/09 04:04:35;;;;;;;2.63;0.00;;;12.10;99.90;;;;;;5043330;28;20025;-84
2022/06/09 04:07:01;;;;;;;1.55;0.10;;;13.00;99.90;;;;;;5043061;28;20041;-84
2022/06/09 04:09:27;;;;;;;5.97;0.52;;;;;;;;;;5042354;28;20029;-84
2022/06/09 04:11:52;;;;;;;2.58;0.10;;;12.60;99.90;;;;;;5042470;28;20021;-83
2022/06/09 04:14:18;;;;;;;3.78;0.20;;;12.60;99.90;;;;;;5043025;28;20071;-83
2022/06/09 04:16:44;;;;;;;0.90;0.00;;;12.70;99.90;;;;;;5043189;28;20049;-84
2022/06/09 04:19:13;;;;;;;4.60;0.35;;;14.00;99.90;;;;;;5043238;28;20021;-83
2022/06/09 04:21:39;;;;;;;2.88;0.43;;;12.80;99.90;;;;;;5060659;28;20079;-83
2022/06/09 04:24:06;;;;;;;2.40;0.17;;;12.20;99.90;;;;;;5042994;28;20029;-83
2022/06/09 04:26:36;;;;;;;3.08;0.35;;;12.90;99.90;;;;;;5061540;28;20025;-83
2022/06/09 04:29:05;;;;;;;5.78;0.38;;;13.60;99.90;;;;;;5043931;28;20028;-83
2022/06/09 04:31:30;;;;;;;2.35;0.00;;;13.10;99.90;;;;;;5061051;28;20022;-83
2022/06/09 04:33:56;;;;;;;2.95;0.30;;;13.20;99.90;;;;;;5061748;28;20028;-83
2022/06/09 04:36:22;;;;;;;2.97;0.10;;;13.50;99.90;;;;;;5043535;28;20017;-83
2022/06/09 04:38:48;;;;;;;5.28;0.22;;;13.20;99.90;;;;;;5061301;28;20100;-83
2022/06/09 04:41:14;;;;;;;8.73;0.35;;;16.00;99.90;;;;;;5061172;28;20017;-83
2022/06/09 04:43:42;;;;;;;7.10;0.85;;;13.90;99.90;;;;;;5042615;28;20021;-83
2022/06/09 04:46:11;;;;;;;3.35;0.17;;;14.00;99.90;;;;;;5043686;28;20041;-83
2022/06/09 04:48:37;;;;;;;4.03;0.30;;;14.00;99.90;;;;;;5044142;28;20118;-83
2022/06/09 04:51:07;;;;;;;3.50;0.15;;;14.20;99.90;;;;;;5062260;28;20117;-84
2022/06/09 04:53:36;;;;;;;4.55;0.10;;;14.40;99.90;;;;;;5043498;28;20025;-83
2022/06/09 04:56:02;;;;;;;5.28;0.17;;;14.30;99.90;;;;;;5043858;28;20017;-84
2022/06/09 04:58:28;;;;;;;2.22;0.00;;;14.70;99.90;;;;;;5043479;28;20017;-83
2022/06/09 05:00:53;;;;;;;2.08;0.03;;;17.60;99.90;;;;;;5061953;28;20021;-84
2022/06/09 05:03:20;;;;;;;1.92;0.20;;;14.70;99.90;;;;;;5044520;28;20028;-84
2022/06/09 05:05:47;;;;;;;2.72;0.00;;;14.70;99.90;;;;;;5061734;28;20047;-84
2022/06/09 05:08:14;;;;;;;5.97;0.35;;;14.70;99.90;;;;;;5042998;28;20017;-85
2022/06/09 05:10:40;;;;;;;2.88;0.10;;;16.70;99.90;;;;;;5061286;28;20036;-84
2022/06/09 05:13:06;;;;;;;3.67;0.00;;;14.60;99.90;;;;;;5044291;28;20017;-84
2022/06/09 05:15:35;;;;;;;3.55;0.57;;;14.50;99.90;;;;;;5061037;28;20087;-85
2022/06/09 05:18:02;;;;;;;4.65;0.38;;;18.20;99.90;;;;;;5061498;28;20013;-85
2022/06/09 05:20:28;;;;;;;3.72;0.10;;;;;;;;;;5061444;28;20018;-84
2022/06/09 05:22:54;;;;;;;1.40;0.10;;;14.90;99.90;;;;;;5061834;28;20112;-84
2022/06/09 05:25:20;;;;;;;5.95;0.10;;;18.20;99.90;;;;;;5043008;28;20106;-84
2022/06/09 05:27:46;;;;;;;9.75;0.80;;;;;;;;;;5061328;28;20039;-84
2022/06/09 05:30:16;;;;;;;5.35;0.22;;;15.10;99.90;;;;;;5042199;28;20036;-84
2022/06/09 05:32:42;;;;;;;2.63;0.40;;;15.90;99.90;;;;;;5042585;28;20023;-84
2022/06/09 05:35:09;;;;;;;3.65;0.30;;;18.80;99.90;;;;;;5041609;28;20049;-84
2022/06/09 05:45:48;;;;;;;5.80;0.52;;;15.70;99.90;;;;;;5058227;28;20055;-84
2022/06/09 05:48:14;;;;;;;4.65;0.73;;;15.80;99.90;;;;;;5057855;28;20092;-85
2022/06/09 05:50:40;;;;;;;0.32;0.00;;;16.00;99.90;;;;;;5038978;28;20029;-85
2022/06/09 05:53:06;;;;;;;1.85;0.20;;;16.30;99.90;;;;;;5038067;28;20013;-86
2022/06/09 05:55:32;;;;;;;2.00;0.10;;;16.60;99.90;;;;;;5056031;28;20078;-85
2022/06/09 05:57:57;;;;;;;2.00;0.17;;;16.10;99.90;;;;;;5037928;28;20036;-85
2022/06/09 06:00:23;;;;;;;2.17;0.20;;;16.30;99.90;;;;;;5056106;28;20397;-85
2022/06/09 06:02:49;;;;;;;1.58;0.10;;;16.50;99.90;;;;;;5055515;28;20027;-86
2022/06/09 06:07:59;;;;;;;4.95;0.20;;;16.50;99.90;;;;;;5055903;28;20505;-86
2022/06/09 06:10:25;;;;;;;1.27;0.20;;;16.60;99.90;;;;;;5037924;28;20021;-86
2022/06/09 06:12:51;;;;;;;1.55;0.00;;;16.80;99.90;;;;;;5056917;28;20029;-86
2022/06/09 06:15:16;;;;;;;5.07;0.50;;;17.10;99.90;;;;;;5038699;28;20025;-85
2022/06/09 06:17:42;;;;;;;3.70;0.20;;;17.10;99.90;;;;;;5038309;28;20501;-86
2022/06/09 06:20:09;;;;;;;2.38;0.10;;;17.10;99.90;;;;;;5055275;28;20131;-85
2022/06/09 06:22:35;;;;;;;1.50;0.10;;;17.10;99.90;;;;;;5036948;28;20108;-86
2022/06/09 06:25:02;;;;;;;2.58;0.10;;;17.20;99.90;;;;;;5056808;28;20059;-87
2022/06/09 06:27:30;;;;;;;3.70;0.10;;;17.10;99.90;;;;;;5056169;28;20067;-86
2022/06/09 06:29:56;;;;;;;;;;;17.10;99.90;;;;;;5060710;28;20025;-86
2022/06/09 06:32:22;;;;;;;4.75;0.50;;;17.00;99.90;;;;;;5059854;28;19904;-86
2022/06/09 06:34:47;;;;;;;5.75;0.75;;;17.00;99.90;;;;;;5040490;28;20457;-86
2022/06/09 06:37:13;;;;;;;2.47;0.35;;;19.50;99.90;;;;;;5059337;28;20021;-86
2022/06/09 06:39:39;;;;;;;2.65;0.15;;;17.80;99.90;;;;;;5041379;28;20132;-87
2022/06/09 06:42:05;;;;;;;3.28;0.55;;;;;;;;;;5042355;28;20486;-86
2022/06/09 06:44:30;;;;;;;6.18;0.10;;;16.90;99.90;;;;;;5041971;28;20123;-86
2022/06/09 06:46:56;;;;;;;0.93;0.00;;;16.80;99.90;;;;;;5042113;28;20548;-87
2022/06/09 06:49:21;;;;;;;6.25;0.55;;;16.50;99.90;;;;;;5042820;28;20111;-86
2022/06/09 06:51:49;;;;;;;3.00;0.10;;;16.50;99.90;;;;;;5042387;28;20021;-85
2022/06/09 06:54:14;;;;;;;9.48;0.75;;;18.80;99.90;;;;;;5060788;28;20521;-85
2022/06/09 06:56:40;;;;;;;2.78;0.35;;;16.20;99.90;;;;;;5043697;28;20110;-85
2022/06/09 06:59:06;;;;;;;5.90;0.10;;;18.80;99.90;;;;;;5042621;28;20025;-86
2022/06/09 07:01:31;;;;;;;1.48;0.00;;;19.40;99.90;;;;;;5042785;28;20036;-85
2022/06/09 07:03:57;;;;;;;2.33;0.00;;;;;;;;;;5043346;28;20091;-85
2022/06/09 07:06:23;;;;;;;5.65;0.70;;;16.10;99.90;;;;;;5060837;28;20075;-86
2022/06/09 07:08:49;;;;;;;3.45;0.43;;;16.10;99.90;;;;;;5042912;28;20025;-85
2022/06/09 07:11:15;;;;;;;5.53;0.35;;;16.10;99.90;;;;;;5042952;28;20024;-85
2022/06/09 07:13:42;;;;;;;4.47;0.32;;;16.80;99.90;;;;;;5042532;28;20029;-85
2022/06/09 07:16:08;;;;;;;3.35;0.13;;;16.40;99.90;;;;;;5060666;28;20028;-86
2022/06/09 07:18:35;;;;;;;5.18;0.30;;;16.20;99.90;;;;;;5042494;28;20017;-85
2022/06/09 07:21:01;;;;;;;2.70;0.00;;;16.40;99.90;;;;;;5042572;28;20071;-85
2022/06/09 07:23:28;;;;;;;3.75;0.00;;;16.80;99.90;;;;;;5060667;28;20036;-85
2022/06/09 07:25:54;;;;;;;7.68;1.38;;;;;;;;;;5042912;28;20394;-85
2022/06/09 07:28:20;;;;;;;8.30;0.63;;;17.00;99.90;;;;;;5041854;28;20024;-85
2022/06/09 07:30:47;;;;;;;3.78;0.08;;;18.80;99.90;;;;;;5041002;28;20028;-85
2022/06/09 07:33:13;;;;;;;3.45;0.20;;;17.30;99.90;;;;;;5041135;28;20025;-86
2022/06/09 07:35:42;;;;;;;5.68;0.43;;;17.80;99.90;;;;;;5042153;28;20108;-85
2022/06/09 07:38:11;;;;;;;5.72;0.40;;;18.30;99.90;;;;;;5041743;28;20028;-85
2022/06/09 07:40:39;;;;;;;7.45;1.08;;;17.30;99.90;;;;;;5061642;28;20029;-85
2022/06/09 07:43:05;;;;;;;;;;;15.60;99.90;;;;;;5048617;28;20036;-85
2022/06/09 07:45:31;;;;;;;1.95;0.30;;;19.40;99.90;;;;;;5048417;28;20289;-85
2022/06/09 07:47:57;;;;;;;1.42;0.20;;;18.10;99.90;;;;;;5047634;28;20037;-85
2022/06/09 07:50:23;;;;;;;3.63;0.00;;;18.40;99.90;;;;;;5047342;28;20486;-84
2022/06/09 07:52:49;;;;;;;3.63;0.10;;;18.50;99.90;;;;;;5049240;28;20469;-85
2022/06/09 07:55:16;;;;;;;4.20;0.57;;;18.50;99.90;;;;;;5045071;28;20025;-85
2022/06/09 07:57:42;;;;;;;4.72;0.82;;;18.50;99.90;;;;;;5062220;28;20013;-85
2022/06/09 08:00:09;;;;;;;2.90;0.00;;;19.20;99.90;;;;;;5044296;28;20394;-85
2022/06/09 08:02:36;;;;;;;4.55;0.40;;;18.60;99.90;;;;;;5047621;28;20025;-86
2022/06/09 08:05:02;;;;;;;1.27;0.28;;;21.10;99.90;;;;;;5051756;28;20433;-84
2022/06/09 08:07:28;;;;;;;2.35;0.00;;;18.60;99.90;;;;;;5047364;28;20032;-85
2022/06/09 08:09:53;;;;;;;3.58;0.25;;;18.70;99.90;;;;;;5046470;28;20043;-85
2022/06/09 08:12:19;;;;;;;5.13;0.60;;;18.90;99.90;;;;;;5046790;28;20101;-85
2022/06/09 08:14:45;;;;;;;5.68;0.22;;;19.00;99.90;;;;;;5063270;28;20040;-85
2022/06/09 08:17:11;;;;;;;2.25;0.00;;;21.00;99.90;;;;;;5046797;28;20035;-85
2022/06/09 08:19:37;;;;;;;3.70;0.75;;;19.20;99.90;;;;;;5047094;28;20021;-86
2022/06/09 08:22:03;;;;;;;0.50;0.13;;;19.50;99.90;;;;;;5046056;28;20021;-85
2022/06/09 08:24:29;;;;;;;1.80;0.10;;;19.70;99.90;;;;;;5046544;28;20028;-85
2022/06/09 08:26:54;;;;;;;2.88;0.30;;;23.00;99.90;;;;;;5064404;28;20029;-84
2022/06/09 08:29:20;;;;;;;2.28;0.30;;;20.60;99.90;;;;;;5062786;28;20024;-84
2022/06/09 08:31:46;;;;;;;0.73;0.20;;;20.90;99.90;;;;;;5047292;28;20395;-84
2022/06/09 08:34:12;;;;;;;1.20;0.15;;;20.00;99.90;;;;;;5045826;28;20028;-84
2022/06/09 08:36:38;;;;;;;3.15;0.00;;;;;;;;;;5045266;28;20017;-84
2022/06/09 08:39:04;;;;;;;0.52;0.00;;;19.70;99.90;;;;;;5044626;28;20044;-85
2022/06/09 08:41:50;;;;;;;2.45;0.00;;;19.90;99.90;;;;;;5044866;28;20440;-85
2022/06/09 08:44:31;;;;;;;1.15;0.00;;;20.00;99.90;;;;;;5040321;28;20049;-86
2022/06/09 08:47:19;;;;;;;3.03;0.00;;;20.30;99.90;;;;;;5036530;28;20033;-85
2022/06/09 08:50:16;;;;;;;4.20;0.20;;;20.40;99.90;;;;;;5034293;28;20025;-85
2022/06/09 08:52:57;;;;;;;2.92;0.20;;;20.40;99.90;;;;;;5035246;28;20037;-84
2022/06/09 08:55:45;;;;;;;2.17;0.00;;;20.30;99.90;;;;;;5051489;28;20018;-85
2022/06/09 08:58:39;;;;;;;2.22;0.08;;;20.20;99.90;;;;;;5050316;28;20029;-85
2022/06/09 09:01:10;;;;;;;2.75;0.20;;;19.80;99.90;;;;;;5033538;28;20025;-85
2022/06/09 09:03:41;;;;;;;2.65;0.00;;;19.80;99.90;;;;;;5037311;28;20868;-85
2022/06/09 09:06:40;;;;;;;2.38;0.20;;;19.90;99.90;;;;;;5035077;28;20029;-85
2022/06/09 09:09:23;;;;;;;1.60;0.00;;;20.10;99.90;;;;;;5051815;28;20039;-85
2022/06/09 09:12:16;;;;;;;4.53;0.05;;;20.20;99.90;;;;;;5034944;28;20025;-85
2022/06/09 09:15:10;;;;;;;1.15;0.00;;;20.20;99.90;;;;;;5033462;28;20209;-84
2022/06/09 09:18:05;;;;;;;1.65;0.03;;;20.30;99.90;;;;;;5033533;28;20023;-86
2022/06/09 09:20:48;;;;;;;3.83;0.10;;;20.40;99.90;;;;;;5052144;28;20036;-84
2022/06/09 09:23:18;;;;;;;1.13;0.20;;;20.30;99.90;;;;;;5032067;28;20109;-84
2022/06/09 09:25:56;;;;;;;2.90;0.10;;;20.30;99.90;;;;;;5031279;28;20040;-85
2022/06/09 09:28:30;;;;;;;1.15;0.00;;;20.50;99.90;;;;;;5033237;28;20028;-85
2022/06/09 09:31:26;;;;;;;1.17;0.00;;;20.70;99.90;;;;;;5032277;28;20024;-85
2022/06/09 09:33:52;;;;;;;1.88;0.00;;;20.90;99.90;;;;;;5013746;28;20034;-85
2022/06/09 09:36:27;;;;;;;2.90;0.00;;;21.00;99.90;;;;;;5051074;28;20024;-85
2022/06/09 09:39:10;;;;;;;1.02;0.10;;;21.00;99.90;;;;;;5031808;28;20417;-86
2022/06/09 09:41:38;;;;;;;0.80;0.00;;;20.90;99.90;;;;;;5050800;28;20075;-85
2022/06/09 09:44:20;;;;;;;2.22;0.08;;;21.00;99.90;;;;;;5051554;28;20030;-85
2022/06/09 09:46:56;;;;;;;0.65;0.00;;;21.10;99.90;;;;;;5050243;28;21024;-85
2022/06/09 09:49:25;;;;;;;2.83;0.20;;;21.10;99.90;;;;;;5033272;28;20029;-85
2022/06/09 09:51:52;;;;;;;0.00;0.00;;;21.20;99.90;;;;;;5032541;28;20042;-86
2022/06/09 09:54:21;;;;;;;5.20;0.30;;;21.40;99.90;;;;;;5041175;28;20021;-84
2022/06/09 09:56:47;;;;;;;1.27;0.00;;;21.30;99.90;;;;;;5042783;28;20047;-84
2022/06/09 09:59:21;;;;;;;3.95;0.17;;;21.40;99.90;;;;;;5042481;28;20017;-84
2022/06/09 10:10:25;;;;;;;2.95;0.10;;;21.50;99.90;;;;;;5059045;28;20032;-85
2022/06/09 10:12:51;;;;;;;1.92;0.00;;;21.50;99.90;;;;;;5043018;28;20036;-85
2022/06/09 10:15:20;;;;;;;0.35;0.00;;;21.50;99.90;;;;;;5056249;28;20024;-85
2022/06/09 10:17:55;;;;;;;2.35;0.00;;;21.70;99.90;;;;;;5057851;28;20026;-87
2022/06/09 10:20:47;;;;;;;2.03;0.35;;;21.90;99.90;;;;;;5039760;28;20076;-85
2022/06/09 10:23:33;;;;;;;2.92;0.20;;;21.90;99.90;;;;;;5043788;28;20124;-84
2022/06/09 10:26:27;;;;;;;2.38;0.17;;;21.90;99.90;;;;;;5033646;28;20013;-84
2022/06/09 10:29:00;;;;;;;5.38;0.63;;;22.20;99.90;;;;;;5043591;28;20045;-85
2022/06/09 10:31:38;;;;;;;7.40;0.55;;;22.30;98.70;;;;;;5039026;28;20112;-84
2022/06/09 10:34:19;;;;;;;2.92;0.22;;;22.40;99.90;;;;;;5024673;28;20083;-84
2022/06/09 10:36:50;;;;;;;6.32;1.25;;;22.40;99.90;;;;;;5049894;28;20789;-85
2022/06/09 10:42:54;;;;;;;3.35;0.10;;;21.80;99.90;;;;;;5009417;28;20043;-85
2022/06/09 10:45:41;;;;;;;0.57;0.00;;;21.40;99.90;;;;;;5058791;28;20028;-86
2022/06/09 10:57:23;;;;;;;3.50;0.00;;;21.90;99.90;;;;;;5077692;28;20499;-78
2022/06/09 11:00:01;;;;;;;1.52;0.00;;;22.30;99.90;;;;;;5078118;28;20029;-78
2022/06/09 11:02:30;;;;;;;1.40;0.00;;;22.70;99.90;;;;;;5070849;28;20116;-78
2022/06/09 11:04:57;;;;;;;4.72;0.00;;;23.10;99.20;;;;;;5061029;28;20056;-78
2022/06/09 11:08:14;;;;;;;4.97;0.00;;;23.10;98.50;;;;;;5054510;28;20127;-78
2022/06/09 11:10:52;;;;;;;3.97;1.13;;;23.20;99.90;;;;;;5055608;28;20032;-77
2022/06/09 11:13:47;;;;;;;7.25;0.65;;;23.00;92.60;;;;;;5054262;28;20040;-77
2022/06/09 11:16:18;;;;;;;6.32;0.65;;;22.60;93.70;;;;;;5055807;28;20021;-77
2022/06/09 11:18:47;;;;;;;4.63;0.22;;;22.60;95.60;;;;;;5056095;28;20028;-77
2022/06/09 11:21:19;;;;;;;2.08;0.10;;;22.70;96.70;;;;;;5056227;28;20013;-77
2022/06/09 11:23:52;;;;;;;3.15;0.20;;;22.80;97.90;;;;;;5055944;28;20055;-76
2022/06/09 11:26:25;;;;;;;1.58;0.00;;;22.80;96.60;;;;;;5054103;28;20025;-77
2022/06/09 11:29:13;;;;;;;3.75;0.00;;;22.90;93.80;;;;;;5054147;28;20385;-76
2022/06/09 11:32:02;;;;;;;4.00;0.22;;;22.90;95.00;;;;;;5054201;28;20029;-76
2022/06/09 11:34:48;;;;;;;2.03;0.03;;;22.90;94.20;;;;;;5055138;28;20104;-76
2022/06/09 11:37:35;;;;;;;3.60;0.13;;;22.90;92.10;;;;;;5055297;28;20036;-76
2022/06/09 11:40:23;;;;;;;2.85;0.28;;;22.40;90.70;;;;;;5056904;28;20512;-76
2022/06/09 11:43:31;;;;;;;2.23;0.30;;;22.40;94.90;;;;;;5055213;28;20397;-76
2022/06/09 11:46:03;;;;;;;2.45;0.00;;;22.70;93.20;;;;;;5000884;28;20519;-76
2022/06/09 11:48:51;;;;;;;6.75;0.22;;;23.10;96.90;;;;;;5054543;28;20378;-77
2022/06/09 11:51:20;;;;;;;3.92;0.10;;;23.50;97.10;;;;;;5054165;28;20037;-77
2022/06/09 11:53:51;;;;;;;1.80;0.35;;;23.90;92.20;;;;;;5064260;28;20387;-76
2022/06/09 11:56:36;;;;;;;3.22;0.40;;;24.10;92.60;;;;;;5067968;28;20024;-76
2022/06/09 11:59:15;;;;;;;4.10;0.03;;;24.30;93.70;;;;;;5064213;28;20025;-76
2022/06/09 12:01:49;;;;;;;2.05;0.00;;;24.60;87.70;;;;;;5075356;28;20021;-76
2022/06/09 12:04:29;;;;;;;3.00;0.00;;;24.60;91.40;;;;;;5073451;28;20371;-76
2022/06/09 12:07:10;;;;;;;1.90;0.32;;;24.70;86.20;;;;;;5074784;28;20107;-76
2022/06/09 12:09:41;;;;;;;4.35;0.08;;;24.50;88.20;;;;;;5074787;28;20474;-76
2022/06/09 12:12:37;;;;;;;1.52;0.28;;;24.50;90.40;;;;;;5074844;28;20020;-76
2022/06/09 12:15:08;;;;;;;1.98;0.00;;;24.60;85.10;;;;;;5073098;28;20060;-76
2022/06/09 12:17:35;;;;;;;3.72;0.65;;;24.40;86.40;;;;;;5073135;28;20024;-76
2022/06/09 12:20:08;;;;;;;3.28;0.30;;;24.20;86.60;;;;;;5074574;28;20029;-76
2022/06/09 12:22:39;;;;;;;2.00;0.00;;;24.20;87.20;;;;;;5073440;28;20024;-76
2022/06/09 12:25:08;;;;;;;3.83;0.15;;;23.90;78.50;;;;;;5072807;28;20021;-76
2022/06/09 12:27:42;;;;;;;2.25;0.20;;;23.90;85.50;;;;;;5073780;28;20043;-75
2022/06/09 12:30:26;;;;;;;4.90;0.45;;;24.20;90.60;;;;;;5072922;28;20075;-76
2022/06/09 12:33:11;;;;;;;7.25;0.20;;;24.30;86.90;;;;;;5072908;28;20500;-76
2022/06/09 12:35:47;;;;;;;4.65;0.30;;;24.50;90.20;;;;;;5074081;28;20110;-75
2022/06/09 12:38:26;;;;;;;2.95;0.10;;;24.80;90.80;;;;;;5074111;28;20032;-75
2022/06/09 12:41:00;;;;;;;2.35;0.00;;;25.00;90.10;;;;;;5074168;28;20036;-75
2022/06/09 12:43:44;;;;;;;2.67;0.08;;;25.50;90.10;;;;;;5074652;28;20083;-75
2022/06/09 12:46:22;;;;;;;2.33;0.20;;;25.70;86.90;;;;;;5074106;28;20039;-76
2022/06/09 12:48:49;;;;;;;;;;;26.10;77.50;;;;;;5074184;28;20028;-75
2022/06/09 12:51:33;;;;;;;5.18;0.60;;;26.40;77.40;;;;;;5073870;28;20041;-76
2022/06/09 12:54:07;;;;;;;2.67;0.00;;;26.50;75.00;;;;;;5072459;28;20060;-76
2022/06/09 12:56:41;;;;;;;4.32;0.00;;;26.00;73.30;;;;;;5073826;28;20025;-76
2022/06/09 12:59:31;;;;;;;3.47;0.00;;;25.60;75.30;;;;;;5073774;28;20016;-76
2022/06/09 13:02:28;;;;;;;1.90;0.03;;;24.90;73.40;;;;;;5073993;28;20491;-76
2022/06/09 13:05:01;;;;;;;8.80;0.20;;;24.30;77.20;;;;;;5073505;28;20041;-76
2022/06/09 13:07:33;;;;;;;4.57;0.32;;;23.90;79.50;;;;;;5073951;28;20032;-76
2022/06/09 13:10:04;;;;;;;6.38;0.77;;;24.20;86.30;;;;;;5073674;28;20043;-76
2022/06/09 13:15:25;;;;;;;1.05;0.00;;;25.20;77.50;;;;;;5074278;28;20366;-76
2022/06/09 13:17:51;;;;;;;1.38;0.25;;;25.70;79.20;;;;;;5073455;28;20025;-76
2022/06/09 13:20:21;;;;;;;2.17;0.08;;;25.90;75.80;;;;;;5072243;28;20025;-76
2022/06/09 13:22:47;;;;;;;4.40;0.10;;;25.90;68.60;;;;;;5073366;28;20020;-76
2022/06/09 13:25:17;;;;;;;2.83;0.00;;;25.90;70.70;;;;;;5073363;28;20036;-76
2022/06/09 13:27:45;;;;;;;3.67;0.13;;;26.10;74.70;;;;;;5073341;28;20108;-76
2022/06/09 13:30:47;;;;;;;2.67;0.13;;;26.00;73.50;;;;;;5073086;28;20393;-77
2022/06/09 13:33:46;;;;;;;1.02;0.00;;;25.90;67.40;;;;;;5062060;28;20027;-76
2022/06/09 13:36:34;;;;;;;3.13;0.10;;;25.10;71.30;;;;;;5071571;28;20485;-76
2022/06/09 13:39:28;;;;;;;3.47;0.60;;;25.20;72.70;;;;;;5074467;28;20165;-76
2022/06/09 13:42:09;;;;;;;3.33;0.00;;;25.00;71.70;;;;;;5077318;28;20078;-76
2022/06/09 13:44:57;;;;;;;3.60;0.00;;;24.60;67.20;;;;;;5072558;28;20033;-75
2022/06/09 13:47:28;;;;;;;6.00;0.63;;;24.10;78.00;;;;;;5057328;28;20064;-75
2022/06/09 13:50:13;;;;;;;4.03;0.75;;;24.00;75.20;;;;;;5072508;28;20040;-75